createdAt,value
2023-05-19T00:00:21.505Z,7.75
2023-05-19T00:01:21.488Z,7.75
2023-05-19T00:02:21.525Z,7.74
2023-05-19T00:03:21.492Z,7.74
2023-05-19T00:04:21.449Z,7.73
2023-05-19T00:05:21.431Z,7.72
2023-05-19T00:06:21.646Z,7.69
2023-05-19T00:07:21.378Z,7.67
2023-05-19T00:08:21.393Z,7.65
2023-05-19T00:09:21.371Z,7.63
2023-05-19T00:10:21.349Z,7.62
2023-05-19T00:11:21.380Z,7.60
2023-05-19T00:12:21.386Z,7.58
2023-05-19T00:13:21.347Z,7.56
2023-05-19T00:14:21.310Z,7.53
2023-05-19T00:15:21.283Z,7.50
2023-05-19T00:16:21.339Z,7.48
2023-05-19T00:17:21.283Z,7.47
2023-05-19T00:18:21.287Z,7.45
2023-05-19T00:19:21.278Z,7.44
2023-05-19T00:20:21.217Z,7.43
2023-05-19T00:21:21.225Z,7.41
2023-05-19T00:22:21.205Z,7.39
2023-05-19T00:23:21.190Z,7.38
2023-05-19T00:24:21.193Z,7.38
2023-05-19T00:25:21.157Z,7.37
2023-05-19T00:26:21.144Z,7.35
2023-05-19T00:27:21.142Z,7.33
2023-05-19T00:28:21.124Z,7.32
2023-05-19T00:29:21.133Z,7.32
2023-05-19T00:30:21.099Z,7.31
2023-05-19T00:31:21.099Z,7.30
2023-05-19T00:32:21.080Z,7.28
2023-05-19T00:33:21.063Z,7.27
2023-05-19T00:34:21.056Z,7.28
2023-05-19T00:35:21.084Z,7.28
2023-05-19T00:36:21.022Z,7.28
2023-05-19T00:37:21.055Z,7.28
2023-05-19T00:38:21.006Z,7.28
2023-05-19T00:39:20.966Z,7.27
2023-05-19T00:40:20.964Z,7.27
2023-05-19T00:41:20.999Z,7.27
2023-05-19T00:42:21.086Z,7.26
2023-05-19T00:43:20.969Z,7.26
2023-05-19T00:44:20.917Z,7.26
2023-05-19T00:45:20.916Z,7.25
2023-05-19T00:46:20.902Z,7.25
2023-05-19T00:47:21.031Z,7.25
2023-05-19T00:48:20.861Z,7.25
2023-05-19T00:49:20.849Z,7.25
2023-05-19T00:50:20.829Z,7.25
2023-05-19T00:51:20.851Z,7.26
2023-05-19T00:52:21.110Z,7.26
2023-05-19T00:53:20.800Z,7.27
2023-05-19T00:54:20.784Z,7.28
2023-05-19T00:55:20.768Z,7.29
2023-05-19T00:56:20.758Z,7.29
2023-05-19T00:57:20.996Z,7.29
2023-05-19T00:58:20.734Z,7.30
2023-05-19T00:59:20.719Z,7.30
2023-05-19T01:00:20.714Z,7.30
2023-05-19T01:01:20.722Z,7.31
2023-05-19T01:02:21.066Z,7.32
2023-05-19T01:03:20.927Z,7.33
2023-05-19T01:04:20.655Z,7.34
2023-05-19T01:05:20.739Z,7.34
2023-05-19T01:06:20.665Z,7.33
2023-05-19T01:07:20.632Z,7.32
2023-05-19T01:08:20.629Z,7.31
2023-05-19T01:09:20.597Z,7.30
2023-05-19T01:10:20.628Z,7.29
2023-05-19T01:11:20.587Z,7.27
2023-05-19T01:12:20.564Z,7.26
2023-05-19T01:13:20.538Z,7.24
2023-05-19T01:14:20.555Z,7.23
2023-05-19T01:15:20.532Z,7.23
2023-05-19T01:16:20.558Z,7.23
2023-05-19T01:17:20.487Z,7.23
2023-05-19T01:18:20.492Z,7.23
2023-05-19T01:19:20.609Z,7.23
2023-05-19T01:20:20.496Z,7.23
2023-05-19T01:21:20.440Z,7.23
2023-05-19T01:22:20.419Z,7.23
2023-05-19T01:23:20.425Z,7.21
2023-05-19T01:24:20.413Z,7.20
2023-05-19T01:25:20.413Z,7.18
2023-05-19T01:26:20.385Z,7.17
2023-05-19T01:27:20.384Z,7.16
2023-05-19T01:28:20.347Z,7.15
2023-05-19T01:29:20.339Z,7.14
2023-05-19T01:30:20.330Z,7.13
2023-05-19T01:31:20.328Z,7.13
2023-05-19T01:32:20.349Z,7.14
2023-05-19T01:33:20.288Z,7.14
2023-05-19T01:34:20.294Z,7.12
2023-05-19T01:35:20.264Z,7.11
2023-05-19T01:36:20.264Z,7.09
2023-05-19T01:37:20.231Z,7.08
2023-05-19T01:38:20.225Z,7.07
2023-05-19T01:39:20.224Z,7.06
2023-05-19T01:40:20.195Z,7.06
2023-05-19T01:41:20.192Z,7.05
2023-05-19T01:42:20.205Z,7.05
2023-05-19T01:43:20.161Z,7.05
2023-05-19T01:44:20.145Z,7.06
2023-05-19T01:45:20.150Z,7.06
2023-05-19T01:46:20.194Z,7.06
2023-05-19T01:47:20.112Z,7.05
2023-05-19T01:48:20.129Z,7.05
2023-05-19T01:49:20.078Z,7.04
2023-05-19T01:50:20.071Z,7.04
2023-05-19T01:51:20.069Z,7.03
2023-05-19T01:52:20.051Z,7.02
2023-05-19T01:53:20.034Z,7.01
2023-05-19T01:54:20.039Z,6.99
2023-05-19T01:55:20.008Z,6.99
2023-05-19T01:56:20.021Z,6.98
2023-05-19T01:57:19.987Z,6.97
2023-05-19T01:58:19.977Z,6.96
2023-05-19T01:59:19.963Z,6.95
2023-05-19T02:00:21.309Z,6.94
2023-05-19T02:01:19.959Z,6.92
2023-05-19T02:02:19.910Z,6.91
2023-05-19T02:03:19.936Z,6.90
2023-05-19T02:04:19.922Z,6.89
2023-05-19T02:05:19.921Z,6.87
2023-05-19T02:06:19.902Z,6.86
2023-05-19T02:07:19.856Z,6.84
2023-05-19T02:08:19.852Z,6.83
2023-05-19T02:09:19.821Z,6.82
2023-05-19T02:10:19.821Z,6.82
2023-05-19T02:11:19.827Z,6.82
2023-05-19T02:12:19.784Z,6.81
2023-05-19T02:13:19.792Z,6.80
2023-05-19T02:14:19.765Z,6.81
2023-05-19T02:15:19.764Z,6.83
2023-05-19T02:16:19.857Z,6.85
2023-05-19T02:17:19.760Z,6.85
2023-05-19T02:18:19.737Z,6.84
2023-05-19T02:19:19.809Z,6.83
2023-05-19T02:20:19.691Z,6.81
2023-05-19T02:21:19.681Z,6.78
2023-05-19T02:22:19.665Z,6.76
2023-05-19T02:23:19.671Z,6.74
2023-05-19T02:24:19.654Z,6.72
2023-05-19T02:25:19.612Z,6.72
2023-05-19T02:26:19.629Z,6.71
2023-05-19T02:27:19.591Z,6.70
2023-05-19T02:28:19.570Z,6.69
2023-05-19T02:29:19.669Z,6.67
2023-05-19T02:30:19.580Z,6.66
2023-05-19T02:31:19.652Z,6.66
2023-05-19T02:32:19.538Z,6.65
2023-05-19T02:33:19.512Z,6.65
2023-05-19T02:34:19.511Z,6.64
2023-05-19T02:35:19.507Z,6.62
2023-05-19T02:36:19.469Z,6.61
2023-05-19T02:37:19.457Z,6.60
2023-05-19T02:38:19.462Z,6.60
2023-05-19T02:39:19.462Z,6.60
2023-05-19T02:40:19.446Z,6.60
2023-05-19T02:41:19.406Z,6.59
2023-05-19T02:42:19.396Z,6.59
2023-05-19T02:43:19.398Z,6.59
2023-05-19T02:44:19.370Z,6.59
2023-05-19T02:45:19.371Z,6.60
2023-05-19T02:46:19.385Z,6.60
2023-05-19T02:47:19.356Z,6.60
2023-05-19T02:48:19.317Z,6.59
2023-05-19T02:49:19.311Z,6.57
2023-05-19T02:50:19.298Z,6.55
2023-05-19T02:51:19.286Z,6.54
2023-05-19T02:52:19.307Z,6.52
2023-05-19T02:53:19.258Z,6.51
2023-05-19T02:54:19.247Z,6.51
2023-05-19T02:55:19.221Z,6.50
2023-05-19T02:56:19.306Z,6.51
2023-05-19T02:57:19.218Z,6.51
2023-05-19T02:58:19.186Z,6.51
2023-05-19T02:59:19.181Z,6.51
2023-05-19T03:00:19.187Z,6.51
2023-05-19T03:01:19.171Z,6.52
2023-05-19T03:02:19.156Z,6.51
2023-05-19T03:03:19.184Z,6.50
2023-05-19T03:04:19.127Z,6.50
2023-05-19T03:05:19.188Z,6.49
2023-05-19T03:06:19.100Z,6.48
2023-05-19T03:07:19.092Z,6.48
2023-05-19T03:08:19.049Z,6.47
2023-05-19T03:09:19.059Z,6.46
2023-05-19T03:10:19.100Z,6.46
2023-05-19T03:11:19.043Z,6.45
2023-05-19T03:12:19.014Z,6.44
2023-05-19T03:13:19.018Z,6.43
2023-05-19T03:14:18.990Z,6.43
2023-05-19T03:15:18.966Z,6.42
2023-05-19T03:16:19.032Z,6.41
2023-05-19T03:17:19.010Z,6.40
2023-05-19T03:18:18.992Z,6.39
2023-05-19T03:19:19.002Z,6.39
2023-05-19T03:20:18.925Z,6.37
2023-05-19T03:21:18.899Z,6.37
2023-05-19T03:22:18.885Z,6.36
2023-05-19T03:23:18.877Z,6.36
2023-05-19T03:24:18.874Z,6.36
2023-05-19T03:25:18.846Z,6.35
2023-05-19T03:26:18.834Z,6.35
2023-05-19T03:27:18.853Z,6.34
2023-05-19T03:28:18.797Z,6.34
2023-05-19T03:29:18.791Z,6.34
2023-05-19T03:30:18.816Z,6.33
2023-05-19T03:31:18.875Z,6.32
2023-05-19T03:32:18.766Z,6.31
2023-05-19T03:33:18.856Z,6.31
2023-05-19T03:34:18.755Z,6.30
2023-05-19T03:35:18.741Z,6.29
2023-05-19T03:36:18.728Z,6.29
2023-05-19T03:37:18.686Z,6.28
2023-05-19T03:38:18.693Z,6.28
2023-05-19T03:39:18.675Z,6.29
2023-05-19T03:40:18.658Z,6.30
2023-05-19T03:41:18.633Z,6.31
2023-05-19T03:42:18.648Z,6.30
2023-05-19T03:43:18.606Z,6.30
2023-05-19T03:44:18.609Z,6.29
2023-05-19T03:45:18.584Z,6.28
2023-05-19T03:46:18.649Z,6.27
2023-05-19T03:47:18.576Z,6.27
2023-05-19T03:48:21.102Z,6.27
2023-05-19T03:49:18.529Z,6.27
2023-05-19T03:50:18.516Z,6.27
2023-05-19T03:51:18.501Z,6.27
2023-05-19T03:52:18.515Z,6.28
2023-05-19T03:53:18.518Z,6.28
2023-05-19T03:54:18.469Z,6.29
2023-05-19T03:55:18.449Z,6.29
2023-05-19T03:56:18.454Z,6.28
2023-05-19T03:57:18.436Z,6.28
2023-05-19T03:58:18.435Z,6.27
2023-05-19T03:59:18.400Z,6.27
2023-05-19T04:00:18.410Z,6.26
2023-05-19T04:01:18.374Z,6.26
2023-05-19T04:02:18.399Z,6.27
2023-05-19T04:03:18.550Z,6.27
2023-05-19T04:04:18.386Z,6.27
2023-05-19T04:05:18.345Z,6.27
2023-05-19T04:06:18.317Z,6.28
2023-05-19T04:07:18.302Z,6.29
2023-05-19T04:08:18.306Z,6.30
2023-05-19T04:09:18.280Z,6.30
2023-05-19T04:10:18.301Z,6.30
2023-05-19T04:11:18.241Z,6.31
2023-05-19T04:12:18.264Z,6.31
2023-05-19T04:13:18.225Z,6.32
2023-05-19T04:14:18.237Z,6.33
2023-05-19T04:15:18.220Z,6.34
2023-05-19T04:16:18.266Z,6.34
2023-05-19T04:17:18.185Z,6.34
2023-05-19T04:18:18.168Z,6.35
2023-05-19T04:19:18.180Z,6.36
2023-05-19T04:20:18.136Z,6.36
2023-05-19T04:21:18.139Z,6.37
2023-05-19T04:22:18.144Z,6.39
2023-05-19T04:23:18.099Z,6.40
2023-05-19T04:24:18.086Z,6.41
2023-05-19T04:25:18.071Z,6.42
2023-05-19T04:26:18.069Z,6.42
2023-05-19T04:27:18.075Z,6.42
2023-05-19T04:28:18.093Z,6.42
2023-05-19T04:29:18.387Z,6.43
2023-05-19T04:30:18.771Z,6.44
2023-05-19T04:31:18.037Z,6.44
2023-05-19T04:32:18.189Z,6.45
2023-05-19T04:33:17.973Z,6.46
2023-05-19T04:34:17.960Z,6.47
2023-05-19T04:35:17.956Z,6.48
2023-05-19T04:36:17.929Z,6.49
2023-05-19T04:37:17.927Z,6.50
2023-05-19T04:38:17.922Z,6.50
2023-05-19T04:39:17.907Z,6.50
2023-05-19T04:40:17.873Z,6.51
2023-05-19T04:41:17.877Z,6.51
2023-05-19T04:42:17.915Z,6.52
2023-05-19T04:43:17.837Z,6.53
2023-05-19T04:44:17.853Z,6.54
2023-05-19T04:45:17.821Z,6.55
2023-05-19T04:46:17.851Z,6.56
2023-05-19T04:47:17.797Z,6.56
2023-05-19T04:48:17.776Z,6.58
2023-05-19T04:49:17.775Z,6.60
2023-05-19T04:50:17.777Z,6.61
2023-05-19T04:51:17.791Z,6.64
2023-05-19T04:52:17.761Z,6.66
2023-05-19T04:53:17.715Z,6.69
2023-05-19T04:54:17.704Z,6.72
2023-05-19T04:55:17.714Z,6.74
2023-05-19T04:56:17.694Z,6.76
2023-05-19T04:57:17.655Z,6.79
2023-05-19T04:58:17.656Z,6.83
2023-05-19T04:59:17.673Z,6.86
2023-05-19T05:00:17.674Z,6.88
2023-05-19T05:01:17.684Z,6.89
2023-05-19T05:02:17.657Z,6.91
2023-05-19T05:03:17.752Z,6.92
2023-05-19T05:04:17.563Z,6.93
2023-05-19T05:05:17.565Z,6.94
2023-05-19T05:06:17.578Z,6.95
2023-05-19T05:07:17.553Z,6.96
2023-05-19T05:08:17.561Z,6.96
2023-05-19T05:09:17.517Z,6.96
2023-05-19T05:10:17.487Z,6.97
2023-05-19T05:11:17.482Z,6.98
2023-05-19T05:12:17.524Z,6.98
2023-05-19T05:13:17.484Z,6.99
2023-05-19T05:14:17.432Z,6.99
2023-05-19T05:15:17.421Z,6.98
2023-05-19T05:16:17.431Z,6.96
2023-05-19T05:17:17.395Z,6.95
2023-05-19T05:18:17.402Z,6.96
2023-05-19T05:19:17.426Z,6.97
2023-05-19T05:20:17.359Z,6.97
2023-05-19T05:21:17.359Z,6.99
2023-05-19T05:22:17.328Z,7.01
2023-05-19T05:23:17.321Z,7.04
2023-05-19T05:24:17.335Z,7.05
2023-05-19T05:25:17.286Z,7.05
2023-05-19T05:26:17.276Z,7.04
2023-05-19T05:27:17.271Z,7.04
2023-05-19T05:28:17.252Z,7.07
2023-05-19T05:29:17.261Z,7.11
2023-05-19T05:30:17.237Z,7.13
2023-05-19T05:31:17.224Z,7.15
2023-05-19T05:32:17.260Z,7.18
2023-05-19T05:33:17.253Z,7.20
2023-05-19T05:34:17.201Z,7.20
2023-05-19T05:35:17.166Z,7.20
2023-05-19T05:36:17.154Z,7.22
2023-05-19T05:37:17.156Z,7.26
2023-05-19T05:38:17.131Z,7.29
2023-05-19T05:39:17.137Z,7.28
2023-05-19T05:40:17.107Z,7.27
2023-05-19T05:41:17.092Z,7.27
2023-05-19T05:42:17.089Z,7.29
2023-05-19T05:43:17.069Z,7.30
2023-05-19T05:44:17.055Z,7.30
2023-05-19T05:45:17.047Z,7.31
2023-05-19T05:46:17.058Z,7.33
2023-05-19T05:47:17.019Z,7.37
2023-05-19T05:48:17.042Z,7.40
2023-05-19T05:49:16.990Z,7.43
2023-05-19T05:50:16.974Z,7.45
2023-05-19T05:51:16.988Z,7.48
2023-05-19T05:52:16.959Z,7.50
2023-05-19T05:53:16.937Z,7.52
2023-05-19T05:54:16.923Z,7.51
2023-05-19T05:55:16.907Z,7.48
2023-05-19T05:56:16.895Z,7.48
2023-05-19T05:57:16.939Z,7.50
2023-05-19T05:58:16.892Z,7.52
2023-05-19T05:59:16.858Z,7.54
2023-05-19T06:00:16.845Z,7.56
2023-05-19T06:01:16.865Z,7.60
2023-05-19T06:02:16.966Z,7.63
2023-05-19T06:03:16.985Z,7.65
2023-05-19T06:04:16.815Z,7.64
2023-05-19T06:05:16.932Z,7.64
2023-05-19T06:06:16.764Z,7.64
2023-05-19T06:07:16.777Z,7.64
2023-05-19T06:08:16.744Z,7.65
2023-05-19T06:09:16.770Z,7.67
2023-05-19T06:10:16.759Z,7.68
2023-05-19T06:11:16.745Z,7.70
2023-05-19T06:12:16.694Z,7.74
2023-05-19T06:13:16.700Z,7.80
2023-05-19T06:14:16.677Z,7.85
2023-05-19T06:15:16.674Z,7.86
2023-05-19T06:16:16.732Z,7.87
2023-05-19T06:17:16.658Z,7.90
2023-05-19T06:18:16.627Z,7.94
2023-05-19T06:19:16.673Z,7.99
2023-05-19T06:20:16.617Z,8.05
2023-05-19T06:21:16.617Z,8.09
2023-05-19T06:22:16.616Z,8.11
2023-05-19T06:23:16.573Z,8.12
2023-05-19T06:24:16.566Z,8.14
2023-05-19T06:25:16.604Z,8.18
2023-05-19T06:26:16.503Z,8.21
2023-05-19T06:27:16.588Z,8.24
2023-05-19T06:28:16.501Z,8.27
2023-05-19T06:29:16.520Z,8.31
2023-05-19T06:30:16.530Z,8.37
2023-05-19T06:31:16.556Z,8.43
2023-05-19T06:32:16.448Z,8.45
2023-05-19T06:33:16.443Z,8.45
2023-05-19T06:34:16.417Z,8.48
2023-05-19T06:35:16.401Z,8.52
2023-05-19T06:36:16.422Z,8.54
2023-05-19T06:37:16.377Z,8.57
2023-05-19T06:38:16.379Z,8.61
2023-05-19T06:39:16.392Z,8.66
2023-05-19T06:40:16.342Z,8.71
2023-05-19T06:41:16.359Z,8.72
2023-05-19T06:42:16.303Z,8.70
2023-05-19T06:43:16.337Z,8.69
2023-05-19T06:44:16.312Z,8.73
2023-05-19T06:45:16.303Z,8.75
2023-05-19T06:46:16.289Z,8.75
2023-05-19T06:47:16.448Z,8.76
2023-05-19T06:48:16.427Z,8.80
2023-05-19T06:49:16.254Z,8.81
2023-05-19T06:50:16.242Z,8.78
2023-05-19T06:51:16.226Z,8.75
2023-05-19T06:52:16.197Z,8.75
2023-05-19T06:53:16.169Z,8.78
2023-05-19T06:54:16.554Z,8.84
2023-05-19T06:55:16.140Z,8.86
2023-05-19T06:56:16.168Z,8.85
2023-05-19T06:57:16.119Z,8.84
2023-05-19T06:58:16.113Z,8.83
2023-05-19T06:59:16.097Z,8.85
2023-05-19T07:00:18.178Z,8.87
2023-05-19T07:01:16.157Z,8.86
2023-05-19T07:02:16.118Z,8.83
2023-05-19T07:03:16.118Z,8.85
2023-05-19T07:04:16.083Z,8.89
2023-05-19T07:05:16.017Z,8.94
2023-05-19T07:06:16.013Z,8.99
2023-05-19T07:07:16.001Z,9.01
2023-05-19T07:08:15.985Z,9.03
2023-05-19T07:09:15.977Z,9.04
2023-05-19T07:10:16.059Z,9.06
2023-05-19T07:11:15.929Z,9.12
2023-05-19T07:12:15.927Z,9.14
2023-05-19T07:13:15.905Z,9.14
2023-05-19T07:14:16.157Z,9.17
2023-05-19T07:15:15.900Z,9.20
2023-05-19T07:16:15.894Z,9.21
2023-05-19T07:17:15.874Z,9.17
2023-05-19T07:18:15.856Z,9.14
2023-05-19T07:19:15.878Z,9.15
2023-05-19T07:20:15.837Z,9.19
2023-05-19T07:21:15.815Z,9.25
2023-05-19T07:22:15.796Z,9.31
2023-05-19T07:23:17.226Z,9.33
2023-05-19T07:24:15.764Z,9.38
2023-05-19T07:25:15.818Z,9.46
2023-05-19T07:26:15.759Z,9.61
2023-05-19T07:27:15.718Z,9.80
2023-05-19T07:28:15.717Z,9.99
2023-05-19T07:29:15.727Z,10.21
2023-05-19T07:30:15.706Z,10.41
2023-05-19T07:31:15.753Z,10.51
2023-05-19T07:32:15.744Z,10.53
2023-05-19T07:33:15.762Z,10.59
2023-05-19T07:34:15.637Z,10.71
2023-05-19T07:35:15.639Z,10.83
2023-05-19T07:36:15.617Z,11.03
2023-05-19T07:37:15.631Z,11.24
2023-05-19T07:38:15.609Z,11.34
2023-05-19T07:39:15.709Z,11.27
2023-05-19T07:40:15.572Z,11.14
2023-05-19T07:41:15.547Z,11.05
2023-05-19T07:42:15.549Z,10.98
2023-05-19T07:43:15.555Z,11.02
2023-05-19T07:44:15.506Z,11.11
2023-05-19T07:45:15.507Z,11.20
2023-05-19T07:46:15.541Z,11.31
2023-05-19T07:47:15.478Z,11.46
2023-05-19T07:48:15.717Z,11.53
2023-05-19T07:49:15.449Z,11.56
2023-05-19T07:50:15.436Z,11.66
2023-05-19T07:51:15.459Z,11.79
2023-05-19T07:52:15.433Z,11.94
2023-05-19T07:53:15.482Z,12.11
2023-05-19T07:54:15.427Z,12.25
2023-05-19T07:55:15.405Z,12.33
2023-05-19T07:56:15.358Z,12.35
2023-05-19T07:57:15.354Z,12.15
2023-05-19T07:58:15.363Z,11.86
2023-05-19T07:59:15.337Z,11.52
2023-05-19T08:00:15.359Z,11.15
2023-05-19T08:01:15.313Z,10.88
2023-05-19T08:02:15.328Z,10.63
2023-05-19T08:03:15.446Z,10.40
2023-05-19T08:04:15.421Z,10.20
2023-05-19T08:05:15.247Z,10.05
2023-05-19T08:06:15.274Z,10.03
2023-05-19T08:07:15.258Z,10.18
2023-05-19T08:08:15.223Z,10.37
2023-05-19T08:09:15.197Z,10.53
2023-05-19T08:10:15.196Z,10.62
2023-05-19T08:11:15.208Z,10.63
2023-05-19T08:12:15.183Z,10.61
2023-05-19T08:13:15.157Z,10.61
2023-05-19T08:14:15.148Z,10.68
2023-05-19T08:15:15.139Z,10.79
2023-05-19T08:16:15.234Z,10.84
2023-05-19T08:17:15.112Z,10.89
2023-05-19T08:18:15.126Z,11.02
2023-05-19T08:19:15.120Z,11.27
2023-05-19T08:20:15.061Z,11.55
2023-05-19T08:21:15.058Z,11.75
2023-05-19T08:22:15.054Z,11.83
2023-05-19T08:23:15.067Z,11.82
2023-05-19T08:24:15.042Z,11.86
2023-05-19T08:25:15.024Z,12.00
2023-05-19T08:26:15.000Z,12.12
2023-05-19T08:27:14.980Z,12.12
2023-05-19T08:28:14.990Z,12.05
2023-05-19T08:29:14.951Z,12.01
2023-05-19T08:30:14.999Z,11.96
2023-05-19T08:31:14.985Z,11.88
2023-05-19T08:32:14.933Z,11.75
2023-05-19T08:33:15.011Z,11.60
2023-05-19T08:34:14.934Z,11.52
2023-05-19T08:35:14.909Z,11.56
2023-05-19T08:36:14.930Z,11.82
2023-05-19T08:37:14.884Z,12.47
2023-05-19T08:38:14.855Z,13.36
2023-05-19T08:39:14.850Z,14.15
2023-05-19T08:40:14.878Z,14.55
2023-05-19T08:41:14.813Z,14.86
2023-05-19T08:42:14.866Z,15.28
2023-05-19T08:45:53.057Z,17.42
2023-05-19T08:46:41.905Z,16.74
2023-05-19T08:47:41.867Z,16.12
2023-05-19T08:48:41.842Z,15.83
2023-05-19T08:49:41.826Z,15.86
2023-05-19T08:50:41.810Z,16.04
2023-05-19T08:51:41.817Z,16.15
2023-05-19T08:52:41.796Z,16.22
2023-05-19T08:53:41.831Z,16.26
2023-05-19T08:54:41.790Z,16.24
2023-05-19T08:55:41.767Z,16.18
2023-05-19T08:56:41.749Z,15.96
2023-05-19T08:57:41.775Z,15.56
2023-05-19T08:58:41.733Z,15.09
2023-05-19T08:59:41.716Z,14.68
2023-05-19T09:00:41.724Z,14.57
2023-05-19T09:01:41.756Z,14.56
2023-05-19T09:02:50.579Z,14.37
2023-05-19T09:03:42.567Z,14.19
2023-05-19T09:04:41.684Z,14.20
2023-05-19T09:05:41.781Z,14.30
2023-05-19T09:06:41.634Z,14.39
2023-05-19T09:07:41.633Z,14.58
2023-05-19T09:08:41.679Z,15.01
2023-05-19T09:09:41.595Z,15.26
2023-05-19T09:10:41.614Z,15.66
2023-05-19T09:11:41.659Z,16.23
2023-05-19T09:12:41.613Z,16.40
2023-05-19T09:13:41.633Z,15.98
2023-05-19T09:14:41.552Z,15.44
2023-05-19T09:15:41.612Z,15.01
2023-05-19T09:16:41.587Z,14.98
2023-05-19T09:17:41.556Z,15.26
2023-05-19T09:18:41.532Z,15.71
2023-05-19T09:19:41.513Z,16.20
2023-05-19T09:20:41.495Z,16.27
2023-05-19T09:21:41.492Z,16.23
2023-05-19T09:22:41.476Z,16.23
2023-05-19T09:23:41.487Z,15.98
2023-05-19T09:24:41.458Z,15.53
2023-05-19T09:25:41.459Z,15.20
2023-05-19T09:26:41.424Z,15.35
2023-05-19T09:27:41.421Z,15.86
2023-05-19T09:28:41.414Z,16.57
2023-05-19T09:29:41.389Z,16.86
2023-05-19T09:30:41.432Z,16.74
2023-05-19T09:31:41.482Z,16.77
2023-05-19T09:32:41.421Z,16.79
2023-05-19T09:33:44.344Z,16.67
2023-05-19T09:34:41.370Z,16.61
2023-05-19T09:35:41.336Z,16.52
2023-05-19T09:36:41.342Z,16.41
2023-05-19T09:37:41.375Z,16.52
2023-05-19T09:38:41.367Z,16.59
2023-05-19T09:39:41.310Z,16.70
2023-05-19T09:40:41.291Z,16.95
2023-05-19T09:41:41.279Z,17.18
2023-05-19T09:42:41.293Z,17.42
2023-05-19T09:43:41.258Z,17.37
2023-05-19T09:44:41.263Z,16.97
2023-05-19T09:45:41.290Z,16.44
2023-05-19T09:46:41.271Z,15.90
2023-05-19T09:47:41.376Z,15.53
2023-05-19T09:48:41.223Z,15.31
2023-05-19T09:49:41.200Z,15.13
2023-05-19T09:50:41.189Z,15.24
2023-05-19T09:51:41.233Z,15.82
2023-05-19T09:52:41.168Z,16.68
2023-05-19T09:53:41.152Z,17.30
2023-05-19T09:54:41.185Z,17.51
2023-05-19T09:55:41.142Z,17.75
2023-05-19T09:56:41.122Z,18.06
2023-05-19T09:57:41.124Z,18.06
2023-05-19T09:58:41.116Z,17.64
2023-05-19T09:59:41.110Z,17.01
2023-05-19T10:00:41.132Z,16.46
2023-05-19T10:01:41.212Z,16.09
2023-05-19T10:02:41.150Z,15.92
2023-05-19T10:03:41.067Z,15.83
2023-05-19T10:04:41.075Z,15.65
2023-05-19T10:05:41.025Z,15.41
2023-05-19T10:06:41.047Z,15.23
2023-05-19T10:07:41.032Z,15.05
2023-05-19T10:08:40.988Z,14.98
2023-05-19T10:09:40.988Z,15.05
2023-05-19T10:10:40.995Z,15.31
2023-05-19T10:11:40.980Z,15.53
2023-05-19T10:12:40.965Z,15.62
2023-05-19T10:13:40.946Z,15.39
2023-05-19T10:14:40.936Z,14.93
2023-05-19T10:15:53.719Z,14.65
2023-05-19T10:16:41.016Z,14.56
2023-05-19T10:17:40.910Z,14.45
2023-05-19T10:18:40.921Z,14.29
2023-05-19T10:19:40.875Z,14.24
2023-05-19T10:20:40.859Z,14.35
2023-05-19T10:21:40.839Z,14.48
2023-05-19T10:22:40.830Z,14.56
2023-05-19T10:23:40.843Z,14.59
2023-05-19T10:24:40.814Z,14.57
2023-05-19T10:25:40.823Z,14.51
2023-05-19T10:26:40.794Z,14.61
2023-05-19T10:27:40.779Z,14.84
2023-05-19T10:28:40.783Z,15.16
2023-05-19T10:29:40.756Z,15.28
2023-05-19T10:30:40.754Z,15.09
2023-05-19T10:31:40.738Z,14.73
2023-05-19T10:32:40.751Z,14.43
2023-05-19T10:33:40.693Z,14.28
2023-05-19T10:34:40.708Z,14.35
2023-05-19T10:35:40.686Z,14.60
2023-05-19T10:36:40.674Z,14.80
2023-05-19T10:37:40.689Z,14.84
2023-05-19T10:38:40.633Z,14.69
2023-05-19T10:39:40.666Z,14.43
2023-05-19T10:40:40.623Z,14.20
2023-05-19T10:41:40.591Z,14.02
2023-05-19T10:42:40.599Z,13.95
2023-05-19T10:43:40.601Z,13.95
2023-05-19T10:44:40.569Z,13.86
2023-05-19T10:45:40.638Z,13.69
2023-05-19T10:46:40.622Z,13.60
2023-05-19T10:47:40.598Z,13.57
2023-05-19T10:48:40.538Z,13.54
2023-05-19T10:49:40.621Z,13.47
2023-05-19T10:50:40.589Z,13.36
2023-05-19T10:51:40.539Z,13.23
2023-05-19T10:52:40.506Z,13.13
2023-05-19T10:53:40.515Z,13.06
2023-05-19T10:54:40.461Z,13.04
2023-05-19T10:55:40.438Z,13.03
2023-05-19T10:56:40.435Z,13.08
2023-05-19T10:57:40.415Z,13.14
2023-05-19T10:58:40.387Z,13.19
2023-05-19T10:59:41.044Z,13.24
2023-05-19T11:00:40.375Z,13.24
2023-05-19T11:01:40.388Z,13.18
2023-05-19T11:02:40.418Z,13.12
2023-05-19T11:03:42.905Z,13.07
2023-05-19T11:04:40.313Z,13.01
2023-05-19T11:05:40.318Z,12.93
2023-05-19T11:06:40.310Z,12.89
2023-05-19T11:07:40.305Z,12.82
2023-05-19T11:08:40.287Z,12.72
2023-05-19T11:09:40.842Z,12.63
2023-05-19T11:10:40.259Z,12.58
2023-05-19T11:11:40.245Z,12.57
2023-05-19T11:12:40.208Z,12.57
2023-05-19T11:13:40.251Z,12.60
2023-05-19T11:14:40.193Z,12.67
2023-05-19T11:15:40.206Z,12.74
2023-05-19T11:16:40.930Z,12.77
2023-05-19T11:17:40.185Z,12.73
2023-05-19T11:18:40.177Z,12.66
2023-05-19T11:19:40.176Z,12.61
2023-05-19T11:20:40.185Z,12.57
2023-05-19T11:21:40.109Z,12.57
2023-05-19T11:22:40.107Z,12.59
2023-05-19T11:23:40.158Z,12.59
2023-05-19T11:24:40.106Z,12.61
2023-05-19T11:25:40.335Z,12.57
2023-05-19T11:26:40.031Z,12.51
2023-05-19T11:27:40.266Z,12.48
2023-05-19T11:28:40.008Z,12.48
2023-05-19T11:29:40.017Z,12.52
2023-05-19T11:30:40.013Z,12.55
2023-05-19T11:31:40.048Z,12.56
2023-05-19T11:32:40.037Z,12.57
2023-05-19T11:33:39.945Z,12.56
2023-05-19T11:34:39.938Z,12.55
2023-05-19T11:35:40.184Z,12.51
2023-05-19T11:36:39.964Z,12.46
2023-05-19T11:37:39.906Z,12.44
2023-05-19T11:38:39.886Z,12.44
2023-05-19T11:39:39.898Z,12.48
2023-05-19T11:40:39.862Z,12.59
2023-05-19T11:41:40.574Z,12.73
2023-05-19T11:42:39.922Z,12.82
2023-05-19T11:43:39.960Z,12.86
2023-05-19T11:44:39.902Z,12.85
2023-05-19T11:45:39.802Z,12.75
2023-05-19T11:46:39.877Z,12.65
2023-05-19T11:47:59.674Z,12.58
2023-05-19T11:48:39.852Z,12.58
2023-05-19T11:49:39.750Z,12.61
2023-05-19T11:50:39.745Z,12.64
2023-05-19T11:51:39.742Z,12.66
2023-05-19T11:52:39.718Z,12.65
2023-05-19T11:53:40.453Z,12.61
2023-05-19T11:54:39.699Z,12.56
2023-05-19T11:55:39.664Z,12.52
2023-05-19T11:56:39.739Z,12.48
2023-05-19T11:57:40.499Z,12.48
2023-05-19T11:58:39.685Z,12.53
2023-05-19T11:59:39.650Z,12.62
2023-05-19T12:00:40.181Z,12.75
2023-05-19T12:01:39.620Z,12.90
2023-05-19T12:02:39.652Z,13.06
2023-05-19T12:03:39.783Z,13.21
2023-05-19T12:04:39.580Z,13.39
2023-05-19T12:05:42.788Z,13.55
2023-05-19T12:06:39.669Z,13.66
2023-05-19T12:07:39.765Z,13.78
2023-05-19T12:08:39.513Z,13.92
2023-05-19T12:09:39.554Z,14.04
2023-05-19T12:10:39.522Z,14.02
2023-05-19T12:11:39.508Z,13.82
2023-05-19T12:12:39.475Z,13.57
2023-05-19T12:13:39.459Z,13.30
2023-05-19T12:14:39.522Z,13.09
2023-05-19T12:15:39.744Z,12.96
2023-05-19T12:16:39.471Z,12.90
2023-05-19T12:17:39.475Z,12.88
2023-05-19T12:18:40.071Z,12.83
2023-05-19T12:19:39.375Z,12.78
2023-05-19T12:20:39.436Z,12.77
2023-05-19T12:21:39.377Z,12.78
2023-05-19T12:22:39.405Z,12.79
2023-05-19T12:23:39.367Z,12.75
2023-05-19T12:24:39.311Z,12.67
2023-05-19T12:25:39.304Z,12.57
2023-05-19T12:26:39.273Z,12.45
2023-05-19T12:27:39.287Z,12.41
2023-05-19T12:28:39.270Z,12.44
2023-05-19T12:29:39.274Z,12.47
2023-05-19T12:30:39.344Z,12.50
2023-05-19T12:31:39.242Z,12.54
2023-05-19T12:32:39.222Z,12.56
2023-05-19T12:33:39.204Z,12.54
2023-05-19T12:34:39.205Z,12.50
2023-05-19T12:35:39.187Z,12.46
2023-05-19T12:36:39.152Z,12.41
2023-05-19T12:37:39.130Z,12.38
2023-05-19T12:38:39.211Z,12.37
2023-05-19T12:39:39.125Z,12.39
2023-05-19T12:40:39.109Z,12.46
2023-05-19T12:41:39.097Z,12.53
2023-05-19T12:42:39.088Z,12.57
2023-05-19T12:43:39.075Z,12.61
2023-05-19T12:44:39.048Z,12.63
2023-05-19T12:45:39.176Z,12.64
2023-05-19T12:46:39.021Z,12.64
2023-05-19T12:47:39.027Z,12.61
2023-05-19T12:48:39.100Z,12.59
2023-05-19T12:49:38.989Z,12.61
2023-05-19T12:50:39.030Z,12.61
2023-05-19T12:51:38.968Z,12.58
2023-05-19T12:52:38.946Z,12.56
2023-05-19T12:53:38.926Z,12.56
2023-05-19T12:54:38.958Z,12.57
2023-05-19T12:55:38.905Z,12.56
2023-05-19T12:56:38.946Z,12.55
2023-05-19T12:57:39.080Z,12.56
2023-05-19T12:58:38.874Z,12.63
2023-05-19T12:59:39.160Z,12.69
2023-05-19T13:00:38.888Z,12.76
2023-05-19T13:01:38.907Z,12.85
2023-05-19T13:02:38.900Z,12.87
2023-05-19T13:03:39.041Z,12.85
2023-05-19T13:04:38.848Z,12.80
2023-05-19T13:05:38.799Z,12.75
2023-05-19T13:06:38.830Z,12.73
2023-05-19T13:07:38.789Z,12.75
2023-05-19T13:08:38.765Z,12.78
2023-05-19T13:09:38.725Z,12.77